YCES weather

Ceres Airport
Victoria, Australia

Public forecast

Using degrees Celsius for public forecast. Weather courtesy of forecast.io.

METAR (pilot weather report)

Closest report is Avalon Airport, 11.9 nm (22.1 km) ENE. Retrieved 2019/04/20 09:30 UTC (19 minutes ago):

YMAV 200930Z AUTO 34007KT 9999 // NCD 19/09 Q1018 RF00.0/000.0

TAF (pilot weather forecast)

Closest forecast is Avalon Airport, 11.9 nm (22.1 km) ENE. Retrieved 2019/04/20 06:00 UTC (4 hours ago):

TAF YMAV 200505Z 2006/2106 13008KT CAVOK FM201000 01006KT CAVOK BECMG 2018/2020 01015G25KT CAVOK